createdAt,value
2023-05-03T00:02:16.627Z,63.11
2023-05-03T00:04:48.511Z,63.32
2023-05-03T00:07:16.888Z,63.13
2023-05-03T00:09:44.424Z,63.23
2023-05-03T00:12:11.949Z,63.31
2023-05-03T00:14:39.511Z,63.28
2023-05-03T00:17:08.430Z,63.38
2023-05-03T00:19:37.535Z,63.24
2023-05-03T00:22:05.078Z,63.31
2023-05-03T00:24:32.576Z,63.14
2023-05-03T00:27:00.127Z,63.42
2023-05-03T00:29:27.972Z,63.25
2023-05-03T00:31:55.554Z,63.42
2023-05-03T00:34:24.440Z,63.23
2023-05-03T00:36:51.898Z,63.30
2023-05-03T00:39:19.368Z,63.41
2023-05-03T00:41:46.891Z,63.33
2023-05-03T00:44:14.616Z,63.39
2023-05-03T00:46:42.141Z,63.42
2023-05-03T00:49:09.722Z,63.53
2023-05-03T00:51:38.615Z,63.50
2023-05-03T00:54:06.398Z,63.75
2023-05-03T00:56:44.406Z,63.89
2023-05-03T00:59:18.390Z,63.81
2023-05-03T01:01:47.187Z,63.78
2023-05-03T01:04:14.730Z,63.73
2023-05-03T01:06:44.824Z,63.58
2023-05-03T01:09:13.833Z,63.87
2023-05-03T01:11:43.494Z,63.63
2023-05-03T01:14:11.784Z,63.73
2023-05-03T01:16:41.246Z,63.83
2023-05-03T01:19:15.035Z,63.64
2023-05-03T01:21:44.065Z,63.98
2023-05-03T01:24:12.773Z,63.97
2023-05-03T01:26:41.715Z,63.74
2023-05-03T01:29:09.244Z,63.67
2023-05-03T01:31:38.646Z,63.55
2023-05-03T01:34:12.794Z,63.92
2023-05-03T01:36:40.255Z,63.97
2023-05-03T01:39:10.039Z,64.07
2023-05-03T01:41:37.572Z,63.92
2023-05-03T01:44:06.495Z,64.03
2023-05-03T01:46:33.966Z,64.28
2023-05-03T01:49:01.502Z,64.17
2023-05-03T01:51:28.958Z,64.17
2023-05-03T01:53:56.447Z,64.20
2023-05-03T01:56:23.924Z,64.20
2023-05-03T01:58:51.424Z,64.08
2023-05-03T02:01:20.402Z,64.05
2023-05-03T02:03:47.941Z,64.12
2023-05-03T02:06:15.564Z,63.97
2023-05-03T02:08:43.140Z,63.77
2023-05-03T02:11:10.597Z,63.91
2023-05-03T02:13:38.744Z,64.01
2023-05-03T02:16:06.416Z,63.97
2023-05-03T02:18:35.657Z,63.93
2023-05-03T02:21:03.216Z,63.90
2023-05-03T02:23:30.686Z,64.22
2023-05-03T02:25:58.921Z,64.15
2023-05-03T02:28:26.536Z,64.01
2023-05-03T02:30:54.048Z,64.08
2023-05-03T02:33:21.850Z,64.07
2023-05-03T02:35:50.807Z,64.07
2023-05-03T02:38:18.492Z,63.84
2023-05-03T02:40:45.974Z,63.80
2023-05-03T02:43:13.568Z,63.94
2023-05-03T02:45:41.090Z,63.63
2023-05-03T02:48:08.850Z,63.82
2023-05-03T02:50:36.475Z,63.92
2023-05-03T02:53:05.287Z,64.04
2023-05-03T02:55:32.772Z,63.94
2023-05-03T02:58:00.269Z,64.09
2023-05-03T03:00:27.829Z,64.22
2023-05-03T03:02:55.506Z,63.96
2023-05-03T03:05:23.140Z,64.00
2023-05-03T03:07:51.503Z,64.32
2023-05-03T03:10:20.617Z,64.49
2023-05-03T03:12:48.150Z,64.46
2023-05-03T03:15:15.629Z,64.58
2023-05-03T03:17:43.113Z,64.30
2023-05-03T03:20:11.664Z,63.98
2023-05-03T03:22:39.350Z,64.27
2023-05-03T03:25:07.687Z,64.53
2023-05-03T03:27:37.634Z,64.28
2023-05-03T03:30:08.140Z,64.42
2023-05-03T03:32:35.836Z,64.15
2023-05-03T03:35:03.369Z,64.46
2023-05-03T03:37:30.817Z,64.51
2023-05-03T03:39:58.408Z,64.33
2023-05-03T03:42:25.860Z,64.43
2023-05-03T03:44:54.816Z,64.33
2023-05-03T03:47:22.367Z,64.23
2023-05-03T03:49:49.909Z,64.20
2023-05-03T03:52:17.322Z,64.16
2023-05-03T03:54:44.849Z,64.12
2023-05-03T03:57:12.313Z,64.03
2023-05-03T03:59:39.817Z,64.24
2023-05-03T04:02:08.818Z,64.41
2023-05-03T04:04:36.630Z,64.58
2023-05-03T04:07:04.681Z,64.39
2023-05-03T04:09:32.209Z,65.11
2023-05-03T04:12:00.163Z,64.95
2023-05-03T04:14:27.736Z,65.07
2023-05-03T04:16:56.024Z,64.91
2023-05-03T04:19:26.059Z,64.96
2023-05-03T04:21:53.531Z,64.63
2023-05-03T04:24:21.222Z,64.51
2023-05-03T04:26:48.736Z,64.67
2023-05-03T04:29:16.769Z,64.80
2023-05-03T04:31:44.286Z,64.67
2023-05-03T04:34:15.004Z,64.92
2023-05-03T04:36:45.623Z,64.93
2023-05-03T04:39:13.084Z,65.26
2023-05-03T04:41:41.425Z,65.19
2023-05-03T04:44:08.923Z,65.33
2023-05-03T04:46:36.778Z,65.34
2023-05-03T04:49:04.314Z,65.09
2023-05-03T04:51:31.925Z,65.06
2023-05-03T04:54:01.583Z,64.82
2023-05-03T04:56:29.587Z,65.10
2023-05-03T04:58:57.160Z,65.27
2023-05-03T05:01:27.988Z,65.25
2023-05-03T05:03:55.642Z,65.51
2023-05-03T05:06:23.497Z,65.43
2023-05-03T05:08:51.591Z,65.23
2023-05-03T05:11:20.943Z,65.37
2023-05-03T05:13:48.497Z,65.27
2023-05-03T05:16:17.559Z,65.68
2023-05-03T05:18:45.105Z,65.59
2023-05-03T05:21:13.509Z,65.50
2023-05-03T05:23:41.009Z,66.12
2023-05-03T05:26:08.457Z,65.48
2023-05-03T05:28:37.358Z,65.31
2023-05-03T05:31:04.937Z,65.42
2023-05-03T05:33:32.599Z,64.87
2023-05-03T05:36:00.515Z,64.31
2023-05-03T05:38:28.044Z,63.89
2023-05-03T05:40:55.809Z,63.41
2023-05-03T05:43:23.295Z,63.72
2023-05-03T05:45:52.137Z,64.55
2023-05-03T05:48:19.790Z,65.33
2023-05-03T05:50:47.277Z,64.04
2023-05-03T05:53:14.779Z,64.02
2023-05-03T05:55:42.230Z,63.94
2023-05-03T05:58:09.843Z,64.16
2023-05-03T06:00:37.335Z,63.37
2023-05-03T06:03:06.356Z,64.01
2023-05-03T06:05:33.992Z,63.76
2023-05-03T06:08:01.745Z,64.22
2023-05-03T06:10:29.156Z,64.30
2023-05-03T06:12:56.693Z,64.44
2023-05-03T06:15:24.251Z,64.17
2023-05-03T06:17:51.784Z,64.46
2023-05-03T06:20:20.823Z,65.77
2023-05-03T06:22:48.301Z,64.49
2023-05-03T06:25:17.825Z,64.50
2023-05-03T06:27:45.751Z,64.00
2023-05-03T06:30:13.870Z,64.17
2023-05-03T06:32:42.167Z,64.59
2023-05-03T06:35:10.345Z,62.67
2023-05-03T06:37:39.254Z,63.26
2023-05-03T06:40:07.771Z,62.71
2023-05-03T06:42:35.284Z,63.04
2023-05-03T06:45:02.775Z,63.75
2023-05-03T06:47:30.390Z,63.66
2023-05-03T06:49:57.971Z,63.19
2023-05-03T06:52:25.469Z,62.66
2023-05-03T06:54:54.287Z,62.33
2023-05-03T06:57:22.845Z,62.34
2023-05-03T06:59:50.358Z,61.82
2023-05-03T07:02:18.605Z,61.85
2023-05-03T07:04:46.113Z,62.46
2023-05-03T07:07:13.896Z,62.02
2023-05-03T07:09:43.690Z,61.64
2023-05-03T07:12:12.913Z,61.57
2023-05-03T07:14:40.597Z,60.53
2023-05-03T07:17:08.154Z,60.69
2023-05-03T07:19:37.084Z,59.99
2023-05-03T07:22:04.543Z,60.42
2023-05-03T07:24:31.968Z,60.36
2023-05-03T07:26:59.425Z,60.11
2023-05-03T07:29:28.275Z,60.19
2023-05-03T07:31:55.910Z,59.93
2023-05-03T07:34:23.447Z,59.74
2023-05-03T07:36:52.006Z,59.44
2023-05-03T07:39:19.822Z,59.57
2023-05-03T07:41:47.274Z,59.65
2023-05-03T07:44:14.710Z,59.95
2023-05-03T07:46:43.591Z,59.48
2023-05-03T07:49:11.063Z,60.08
2023-05-03T07:51:38.665Z,59.36
2023-05-03T07:54:06.373Z,60.25
2023-05-03T07:56:33.996Z,59.86
2023-05-03T07:59:09.343Z,59.50
2023-05-03T08:01:38.358Z,59.57
2023-05-03T08:04:08.029Z,58.93
2023-05-03T08:06:38.472Z,58.75
2023-05-03T08:09:06.144Z,58.95
2023-05-03T08:11:33.825Z,59.45
2023-05-03T08:14:01.515Z,58.68
2023-05-03T08:16:29.100Z,58.81
2023-05-03T08:18:56.848Z,58.89
2023-05-03T08:21:26.143Z,58.71
2023-05-03T08:23:54.745Z,58.72
2023-05-03T08:26:24.224Z,58.98
2023-05-03T08:28:51.958Z,58.48
2023-05-03T08:31:19.609Z,58.63
2023-05-03T08:33:47.170Z,58.51
2023-05-03T08:36:14.634Z,58.81
2023-05-03T08:38:43.558Z,58.79
2023-05-03T08:41:16.210Z,58.63
2023-05-03T08:43:44.603Z,58.09
2023-05-03T08:46:12.279Z,58.52
2023-05-03T08:48:39.915Z,58.55
2023-05-03T08:51:07.403Z,58.52
2023-05-03T08:53:34.870Z,58.84
2023-05-03T08:56:05.764Z,58.87
2023-05-03T08:58:35.237Z,58.63
2023-05-03T09:01:05.064Z,58.51
2023-05-03T09:03:32.668Z,58.19
2023-05-03T09:06:02.109Z,58.03
2023-05-03T09:08:29.685Z,57.68
2023-05-03T09:10:57.443Z,57.73
2023-05-03T09:13:30.877Z,57.65
2023-05-03T09:15:58.704Z,56.10
2023-05-03T09:18:26.999Z,57.34
2023-05-03T09:20:54.586Z,57.90
2023-05-03T09:23:31.133Z,58.01
2023-05-03T09:25:59.353Z,58.16
2023-05-03T09:28:26.825Z,58.08
2023-05-03T09:31:04.949Z,57.94
2023-05-03T09:33:32.471Z,57.53
2023-05-03T09:36:00.782Z,56.97
2023-05-03T09:38:29.004Z,57.57
2023-05-03T09:40:56.536Z,57.48
2023-05-03T09:43:24.131Z,57.69
2023-05-03T09:45:51.759Z,57.40
2023-05-03T09:48:23.703Z,56.78
2023-05-03T09:50:51.600Z,56.74
2023-05-03T09:53:19.705Z,56.90
2023-05-03T09:55:47.581Z,57.37
2023-05-03T09:58:15.056Z,57.56
2023-05-03T10:00:44.006Z,56.76
2023-05-03T10:03:12.189Z,56.89
2023-05-03T10:05:45.172Z,56.96
2023-05-03T10:08:13.846Z,56.57
2023-05-03T10:10:41.664Z,56.71
2023-05-03T10:13:12.520Z,57.28
2023-05-03T10:15:41.653Z,55.78
2023-05-03T10:18:09.884Z,56.83
2023-05-03T10:20:38.270Z,56.97
2023-05-03T10:23:12.184Z,56.48
2023-05-03T10:25:40.255Z,57.19
2023-05-03T10:28:08.341Z,56.74
2023-05-03T10:30:36.445Z,56.00
2023-05-03T10:33:21.912Z,56.09
2023-05-03T10:35:52.310Z,56.92
2023-05-03T10:38:22.888Z,56.82
2023-05-03T10:40:50.509Z,56.31
2023-05-03T10:43:32.966Z,56.90
2023-05-03T10:46:00.741Z,56.34
2023-05-03T10:48:28.623Z,56.64
2023-05-03T10:50:56.283Z,57.21
2023-05-03T10:53:38.730Z,55.77
2023-05-03T10:56:09.083Z,56.30
2023-05-03T10:58:37.866Z,56.22
2023-05-03T11:01:06.044Z,55.88
2023-05-03T11:03:39.071Z,56.41
2023-05-03T11:06:06.805Z,56.16
2023-05-03T11:08:37.757Z,54.78
2023-05-03T11:11:10.050Z,54.91
2023-05-03T11:13:37.833Z,53.44
2023-05-03T11:16:05.833Z,54.34
2023-05-03T11:18:33.592Z,54.36
2023-05-03T11:21:02.356Z,55.98
2023-05-03T11:23:30.005Z,56.18
2023-05-03T11:25:58.460Z,55.87
2023-05-03T11:28:27.396Z,55.68
2023-05-03T11:30:54.954Z,56.09
2023-05-03T11:33:22.483Z,55.71
2023-05-03T11:35:50.014Z,56.46
2023-05-03T11:38:17.835Z,55.43
2023-05-03T11:40:45.449Z,53.49
2023-05-03T11:43:13.242Z,55.58
2023-05-03T11:45:44.115Z,55.11
2023-05-03T11:48:12.561Z,55.36
2023-05-03T11:50:46.598Z,55.48
2023-05-03T11:53:14.349Z,56.32
2023-05-03T11:55:42.410Z,56.30
2023-05-03T11:58:10.310Z,55.89
2023-05-03T12:00:37.848Z,55.88
2023-05-03T12:03:08.531Z,54.49
2023-05-03T12:05:36.253Z,54.45
2023-05-03T12:08:05.575Z,54.21
2023-05-03T12:10:34.742Z,54.91
2023-05-03T12:15:40.831Z,48.66
2023-05-03T12:18:10.528Z,47.98
2023-05-03T12:23:11.223Z,47.58
2023-05-03T12:25:40.443Z,47.69
2023-05-03T12:30:33.607Z,46.90
2023-05-03T12:33:04.422Z,46.85
2023-05-03T12:35:34.044Z,45.94
2023-05-03T12:38:03.450Z,44.10
2023-05-03T12:40:34.650Z,43.48
2023-05-03T12:43:02.884Z,44.36
2023-05-03T12:45:34.571Z,43.60
2023-05-03T12:48:02.976Z,42.74
2023-05-03T12:50:32.488Z,43.86
2023-05-03T12:53:02.718Z,44.77
2023-05-03T12:55:34.593Z,44.68
2023-05-03T13:00:37.555Z,43.05
2023-05-03T13:05:37.299Z,44.58
2023-05-03T13:10:36.260Z,42.18
2023-05-03T13:13:04.238Z,42.44
2023-05-03T13:15:31.911Z,42.35
2023-05-03T13:18:03.292Z,42.20
2023-05-03T13:20:31.570Z,42.84
2023-05-03T13:22:59.451Z,42.52
2023-05-03T13:25:27.160Z,43.93
2023-05-03T13:27:55.899Z,44.06
2023-05-03T13:30:24.201Z,42.40
2023-05-03T13:32:52.063Z,43.53
2023-05-03T13:35:21.399Z,42.01
2023-05-03T13:37:49.056Z,41.83
2023-05-03T13:40:16.737Z,41.53
2023-05-03T13:42:44.452Z,42.05
2023-05-03T13:45:13.556Z,44.15
2023-05-03T13:50:15.802Z,41.61
2023-05-03T13:52:45.486Z,43.31
2023-05-03T13:55:13.298Z,41.90
2023-05-03T13:57:40.945Z,42.26
2023-05-03T14:00:12.186Z,42.36
2023-05-03T14:02:39.912Z,41.99
2023-05-03T14:05:08.593Z,42.14
2023-05-03T14:07:36.339Z,42.58
2023-05-03T14:10:07.068Z,41.36
2023-05-03T14:12:37.094Z,41.19
2023-05-03T14:15:05.327Z,41.17
2023-05-03T14:17:33.392Z,42.85
2023-05-03T14:20:01.310Z,42.40
2023-05-03T14:22:29.130Z,41.63
2023-05-03T14:24:56.931Z,40.60
2023-05-03T14:27:26.141Z,42.11
2023-05-03T14:29:55.331Z,41.33
2023-05-03T14:32:25.125Z,40.63
2023-05-03T14:34:52.881Z,40.76
2023-05-03T14:37:20.582Z,40.96
2023-05-03T14:39:48.364Z,40.98
2023-05-03T14:42:16.213Z,40.95
2023-05-03T14:44:45.681Z,41.11
2023-05-03T14:47:13.437Z,42.45
2023-05-03T14:49:41.421Z,41.02
2023-05-03T14:52:09.206Z,40.29
2023-05-03T18:33:29.902Z,40.51
2023-05-03T18:35:57.709Z,40.28
2023-05-03T18:38:25.535Z,40.53
2023-05-03T18:40:54.749Z,40.28
2023-05-03T18:43:22.534Z,40.39
2023-05-03T18:45:50.230Z,41.34
2023-05-03T18:48:17.920Z,41.01
2023-05-03T18:50:46.984Z,40.76
2023-05-03T18:53:15.033Z,40.48
2023-05-03T18:55:43.164Z,40.82
2023-05-03T18:58:10.873Z,40.53
2023-05-03T19:00:38.605Z,41.15
2023-05-03T19:03:06.931Z,40.82
2023-05-03T19:05:34.884Z,41.07
2023-05-03T19:08:03.921Z,41.17
2023-05-03T19:10:31.660Z,41.30
2023-05-03T19:12:59.467Z,41.44
2023-05-03T19:15:27.178Z,41.63
2023-05-03T19:17:54.960Z,41.87
2023-05-03T19:20:22.764Z,41.71
2023-05-03T19:22:50.463Z,42.21
2023-05-03T19:25:19.738Z,42.09
2023-05-03T19:27:47.420Z,42.52
2023-05-03T19:30:15.378Z,42.64
2023-05-03T19:32:43.047Z,42.73
2023-05-03T19:35:11.199Z,42.61
2023-05-03T19:37:38.964Z,42.66
2023-05-03T19:40:07.857Z,42.86
2023-05-03T19:42:37.083Z,42.77
2023-05-03T19:45:05.145Z,42.97
2023-05-03T19:47:33.177Z,43.20
2023-05-03T19:50:00.924Z,43.45
2023-05-03T19:52:28.566Z,43.50
2023-05-03T19:54:57.341Z,43.22
2023-05-03T19:57:25.756Z,43.70
2023-05-03T19:59:54.851Z,43.52
2023-05-03T20:02:24.802Z,43.57
2023-05-03T20:04:52.841Z,44.17
2023-05-03T20:07:20.509Z,43.73
2023-05-03T20:09:48.266Z,43.82
2023-05-03T20:12:15.950Z,44.07
2023-05-03T20:14:43.662Z,43.85
2023-05-03T20:17:13.326Z,43.79
2023-05-03T20:19:41.067Z,44.28
2023-05-03T20:22:08.784Z,44.48
2023-05-03T20:24:36.617Z,44.39
2023-05-03T20:27:04.658Z,44.25
2023-05-03T20:29:32.334Z,44.31
2023-05-03T20:32:00.056Z,44.38
2023-05-03T20:34:29.480Z,44.58
2023-05-03T20:36:57.178Z,44.99
2023-05-03T20:39:24.843Z,44.90
2023-05-03T20:41:52.469Z,44.68
2023-05-03T20:44:20.112Z,44.86
2023-05-03T20:46:47.975Z,44.74
2023-05-03T20:49:15.725Z,44.91
2023-05-03T20:51:44.846Z,44.69
2023-05-03T20:54:12.597Z,44.81
2023-05-03T20:56:40.272Z,44.94
2023-05-03T20:59:08.230Z,44.99
2023-05-03T21:01:39.686Z,45.24
2023-05-03T21:04:07.498Z,45.19
2023-05-03T21:06:36.100Z,45.48
2023-05-03T21:09:05.209Z,45.76
2023-05-03T21:11:32.846Z,45.87
2023-05-03T21:14:01.864Z,46.13
2023-05-03T21:16:29.982Z,46.32
2023-05-03T21:18:57.738Z,46.63
2023-05-03T21:21:25.502Z,47.30
2023-05-03T21:23:53.224Z,47.56
2023-05-03T21:26:22.366Z,47.44
2023-05-03T21:28:50.213Z,48.07
2023-05-03T21:31:17.956Z,48.04
2023-05-03T21:33:45.821Z,48.42
2023-05-03T21:36:13.749Z,48.88
2023-05-03T21:38:42.024Z,48.65
2023-05-03T21:41:09.845Z,48.62
2023-05-03T21:43:38.860Z,48.72
2023-05-03T21:46:08.755Z,49.19
2023-05-03T21:48:36.549Z,49.06
2023-05-03T21:51:04.548Z,49.35
2023-05-03T21:53:33.643Z,49.59
2023-05-03T21:56:01.378Z,49.62
2023-05-03T21:58:29.019Z,49.79
2023-05-03T22:00:58.280Z,49.90
2023-05-03T22:03:25.946Z,49.98
2023-05-03T22:05:53.695Z,50.60
2023-05-03T22:08:21.664Z,50.29
2023-05-03T22:10:49.278Z,50.61
2023-05-03T22:13:18.247Z,50.67
2023-05-03T22:15:46.203Z,50.90
2023-05-03T22:18:15.358Z,50.68
2023-05-03T22:20:43.131Z,51.22
2023-05-03T22:23:10.804Z,51.51
2023-05-03T22:25:38.642Z,51.10
2023-05-03T22:28:06.395Z,51.68
2023-05-03T22:30:34.020Z,51.93
2023-05-03T22:33:01.899Z,51.94
2023-05-03T22:35:30.964Z,52.12
2023-05-03T22:37:58.696Z,52.20
2023-05-03T22:40:26.404Z,52.10
2023-05-03T22:42:54.082Z,52.53
2023-05-03T22:45:21.870Z,53.12
2023-05-03T22:47:49.582Z,52.44
2023-05-03T22:50:17.457Z,53.00
2023-05-03T22:52:46.565Z,52.95
2023-05-03T22:55:14.312Z,53.19
2023-05-03T22:57:42.035Z,53.04
2023-05-03T23:00:11.350Z,53.18
2023-05-03T23:02:39.117Z,53.15
2023-05-03T23:05:07.983Z,53.31
2023-05-03T23:07:35.732Z,53.35
2023-05-03T23:10:06.070Z,53.39
2023-05-03T23:12:34.227Z,53.53
2023-05-03T23:15:01.978Z,53.33
2023-05-03T23:17:29.656Z,53.79
2023-05-03T23:19:57.312Z,53.56
2023-05-03T23:22:24.979Z,53.70
2023-05-03T23:24:52.710Z,53.93
2023-05-03T23:27:21.774Z,53.78
2023-05-03T23:29:50.125Z,53.93
2023-05-03T23:32:18.345Z,54.07
2023-05-03T23:34:46.511Z,54.07
2023-05-03T23:37:14.173Z,54.03
2023-05-03T23:39:45.092Z,54.33
2023-05-03T23:42:13.101Z,54.19
2023-05-03T23:44:54.674Z,53.87
2023-05-03T23:47:23.451Z,54.13
2023-05-03T23:49:51.379Z,54.01
2023-05-03T23:52:20.383Z,54.24
2023-05-03T23:54:48.106Z,54.39
2023-05-03T23:57:15.786Z,54.13
2023-05-03T23:59:44.854Z,54.35
